Latest Weather Observations for Browse Island

IDW60801

Issued at 12:43 pm WST Saturday 22 February 2020 (issued every 10 minutes, with the page automatically refreshed every 10 minutes)

About weather observations | Map of weather stations | Latest weather observations for WA | Other Formats
Station Details ID: 200784 Name: BROWSE ISLAND Lat: -14.11 Lon: 123.55 Height: 3.7 m
Data from the previous 72 hours. | See also: Recent months at Browse Island
Date/Time
WST
Temp
°C
App
Temp
°C
Dew
Point
°C
Rel
Hum
%
Delta-T
°C
Wind Press
QNH
hPa
Press
MSL
hPa
Rain since
9am
mm
Dir  Spd
km/h
Gust
km/h
Spd
kts
Gust
kts
22/12:30pm 30.0 - - - - W 11 13 6 7 1009.0 - -
22/12:25pm 30.0 - - - - W 13 13 7 7 1009.8 1009.7 -
22/12:00pm 30.0 - - - - WNW 13 15 7 8 1010.2 1010.1 -
22/11:30am 30.0 - - - - WNW 15 - 8 - 1010.0 - -
22/11:25am 29.8 - - - - WNW 15 - 8 - - 1010.6 -
22/11:00am 29.8 - - - - WNW 19 - 10 - 1010.0 1010.8 -
22/10:30am 30.0 - - - - WNW 19 - 10 - 1011.0 - -
22/10:25am 29.6 - - - - WNW 19 - 10 - - 1010.9 -
22/10:00am 29.6 - - - - WNW 20 - 11 - 1011.0 1011.2 -
22/09:30am 29.0 - - - - WNW 17 - 9 - 1011.0 - -
22/09:25am 29.5 - - - - WNW 17 - 9 - - 1011.1 -
22/09:00am 29.6 - - - - WNW 13 - 7 - 1011.0 1010.9 -
22/08:30am 29.0 - - - - WNW 15 - 8 - 1010.0 - -
22/08:25am 29.3 - - - - WNW 15 - 8 - - 1010.6 -
22/08:00am 29.2 - - - - WNW 11 - 6 - 1010.0 1010.4 -
22/07:30am 29.0 - - - - WNW 13 - 7 - 1010.0 - -
22/07:25am 29.2 - - - - WNW 13 - 7 - - 1010.3 -
22/07:00am 29.1 - - - - WNW 15 - 8 - 1010.0 1009.9 -
22/06:30am 29.0 - - - - WNW 15 - 8 - 1010.0 - -
22/06:25am 29.1 - - - - WNW 15 - 8 - - 1009.9 -
22/06:00am 29.1 - - - - WNW 17 - 9 - 1009.0 1009.7 -
22/05:30am 29.0 - - - - W 17 - 9 - 1009.0 - -
22/05:25am 29.0 - - - - W 17 - 9 - - 1009.5 -
22/05:00am 29.0 - - - - WNW 17 - 9 - 1009.0 1009.3 -
22/04:30am 29.0 - - - - WNW 17 - 9 - 1009.0 - -
22/04:25am 29.1 - - - - WNW 17 - 9 - - 1009.1 -
22/04:00am 29.0 - - - - W 19 - 10 - 1009.0 1009.0 -
22/03:30am 29.0 - - - - W 17 - 9 - 1009.0 - -
22/03:25am 29.1 - - - - W 17 - 9 - - 1009.2 -
22/03:00am 29.0 - - - - W 20 - 11 - 1009.0 1009.1 -
22/02:30am 29.0 - - - - W 24 - 13 - 1009.0 - -
22/02:25am 29.0 - - - - W 24 - 13 - - 1009.5 -
22/02:00am 29.1 - - - - W 24 - 13 - 1009.0 1009.7 -
22/01:30am 29.0 - - - - W 22 - 12 - 1010.0 - -
22/01:25am 29.3 - - - - W 20 - 11 - - 1009.9 -
22/01:00am 29.2 - - - - W 19 - 10 - 1010.0 1010.2 -
22/12:30am 29.0 - - - - W 19 - 10 - 1010.0 - -
22/12:25am 29.2 - - - - W 19 - 10 - - 1010.6 -
22/12:00am 29.3 - - - - W 19 - 10 - 1011.0 1011.0 -
 
Date/Time
WST
Temp
°C
App
Temp
°C
Dew
Point
°C
Rel
Hum
%
Delta-T
°C
Wind Press
QNH
hPa
Press
MSL
hPa
Rain since
9am
mm
Dir  Spd
km/h
Gust
km/h
Spd
kts
Gust
kts
21/11:30pm 29.0 - - - - W 19 - 10 - 1011.0 - -
21/11:25pm 29.5 - - - - W 19 - 10 - - 1011.5 -
21/11:00pm 29.5 - - - - W 17 - 9 - 1012.0 1012.1 -
21/10:30pm 29.0 - - - - WSW 17 - 9 - 1012.0 - -
21/10:25pm 29.4 - - - - WSW 17 - 9 - - 1012.4 -
21/10:00pm 29.4 - - - - WSW 17 - 9 - 1012.0 1012.5 -
21/09:30pm 29.0 - - - - W 19 - 10 - 1012.0 - -
21/09:25pm 29.2 - - - - W 20 - 11 - - 1012.3 -
21/09:00pm 29.3 - - - - W 22 - 12 - 1012.0 1011.9 -
21/08:30pm 30.0 - - - - WNW 22 - 12 - 1011.0 - -
21/08:25pm 29.5 - - - - WNW 22 - 12 - - 1011.5 -
21/08:00pm 29.4 - - - - WNW 20 - 11 - 1011.0 1011.0 -
21/07:30pm 29.2 - - - - W 20 26 11 14 1010.7 1010.6 -
21/07:25pm 29.2 - - - - W 22 - 12 - - 1010.5 -
21/07:00pm 29.4 - - - - W 24 - 13 - 1010.0 1009.9 -
21/06:30pm 29.0 - - - - W 17 - 9 - 1009.0 - -
21/06:25pm 29.4 - - - - W 17 - 9 - - 1009.3 -
21/06:00pm 29.4 - - - - W 17 - 9 - 1009.0 1009.1 -
21/05:30pm 30.0 - - - - WNW 17 - 9 - 1008.0 - -
21/05:25pm 29.5 - - - - WNW 17 - 9 - - 1008.7 -
21/05:00pm 29.4 - - - - WNW 13 - 7 - 1008.0 1008.4 -
21/04:30pm 30.0 - - - - WNW 13 - 7 - 1008.0 - -
21/04:25pm 29.5 - - - - W 13 - 7 - - 1008.1 -
21/04:00pm 29.4 - - - - WNW 19 - 10 - 1008.0 1007.9 -
21/03:30pm 30.0 - - - - WNW 20 - 11 - 1008.0 - -
21/03:25pm 29.6 - - - - WNW 20 - 11 - - 1007.9 -
21/03:00pm 29.6 - - - - WNW 19 - 10 - 1008.0 1008.1 -
21/02:30pm 30.0 - - - - WNW 19 - 10 - 1008.0 - -
21/02:25pm 29.6 - - - - WNW 17 - 9 - - 1008.6 -
21/02:00pm 29.8 - - - - WNW 19 - 10 - 1008.0 1008.8 -
21/01:30pm 29.5 - - - - WNW 20 24 11 13 1009.1 1009.0 -
21/01:25pm 29.5 - - - - WNW 20 - 11 - - 1009.1 -
21/01:00pm 29.4 - - - - W 28 - 15 - 1008.0 1008.8 -
21/12:30pm 29.0 - - - - W 24 - 13 - 1009.0 - -
21/12:25pm 29.4 - - - - W 24 - 13 - - 1009.2 -
21/12:00pm 29.2 - - - - WNW 19 - 10 - 1009.0 1009.5 -
21/11:30am 29.0 - - - - WNW 17 - 9 - 1009.0 - -
21/11:25am 29.0 - - - - WNW 17 - 9 - - 1009.8 -
21/11:00am 29.3 - - - - NW 13 - 7 - 1010.0 1010.3 -
21/10:30am 29.0 - - - - WNW 11 - 6 - 1010.0 - -
21/10:25am 29.3 - - - - WNW 11 - 6 - - 1010.7 -
21/10:00am 29.1 - - - - WNW 9 - 5 - 1011.0 1011.2 -
21/09:30am 29.0 - - - - WSW 7 - 4 - 1011.0 - -
21/09:25am 28.2 - - - - SW 6 - 3 - - 1011.5 -
21/09:00am 28.3 - - - - SSW 6 - 3 - 1011.0 1011.7 -
21/08:30am 28.0 - - - - W 7 - 4 - 1011.0 - -
21/08:25am 28.2 - - - - W 7 - 4 - - 1011.4 -
21/08:00am 28.1 - - - - SW 9 - 5 - 1011.0 1011.2 -
21/07:30am 28.0 - - - - W 17 - 9 - 1011.0 - -
21/07:25am 27.7 - - - - W 19 - 10 - - 1011.0 -
21/07:00am 27.6 - - - - W 22 26 12 14 1010.6 1010.5 -
21/06:30am 28.0 - - - - WSW 32 - 17 - 1010.0 - -
21/06:25am 27.3 - - - - WSW 30 - 16 - - 1010.3 -
21/06:00am 27.7 - - - - SSW 19 - 10 - 1010.0 1010.4 -
21/05:30am 28.0 - - - - S 11 - 6 - 1010.0 - -
21/05:25am 28.2 - - - - ESE 7 - 4 - - 1009.9 -
21/05:00am 28.3 - - - - ENE 13 - 7 - 1009.0 1009.8 -
21/04:30am 29.0 - - - - SSE 15 - 8 - 1009.0 - -
21/04:25am 28.5 - - - - S 15 - 8 - - 1009.7 -
21/04:09am 28.0 - - - - WSW 28 - 15 - 1009.0 - -
21/04:00am 29.3 - - - - SW 9 - 5 - 1009.0 1009.5 -
21/03:30am 29.0 - - - - WSW 11 - 6 - 1009.0 - -
21/03:25am 29.3 - - - - WSW 13 - 7 - - 1009.2 -
21/03:00am 29.3 - - - - W 20 - 11 - 1009.0 1009.4 -
21/02:30am 29.0 - - - - W 15 - 8 - 1009.0 - -
21/02:25am 29.2 - - - - W 15 - 8 - - 1009.4 -
21/02:00am 29.1 - - - - WSW 17 - 9 - 1009.0 1009.6 -
21/01:30am 29.0 - - - - W 19 - 10 - 1009.0 - -
21/01:25am 29.2 - - - - W 19 - 10 - - 1009.7 -
21/01:00am 28.9 - - - - W 19 - 10 - 1010.0 1010.1 -
21/12:30am 29.0 - - - - W 30 - 16 - 1010.0 - -
21/12:25am 28.5 - - - - WSW 32 - 17 - - 1010.1 -
21/12:00am 29.1 - - - - WNW 20 - 11 - 1010.0 1010.6 -
 
Date/Time
WST
Temp
°C
App
Temp
°C
Dew
Point
°C
Rel
Hum
%
Delta-T
°C
Wind Press
QNH
hPa
Press
MSL
hPa
Rain since
9am
mm
Dir  Spd
km/h
Gust
km/h
Spd
kts
Gust
kts
20/11:30pm 29.0 - - - - W 15 - 8 - 1010.0 - -
20/11:25pm 29.1 - - - - W 13 - 7 - - 1010.8 -
20/11:00pm 29.0 - - - - WSW 20 - 11 - 1011.0 1011.0 -
20/10:30pm 28.0 - - - - WSW 17 - 9 - 1011.0 - -
20/10:25pm 28.3 - - - - WSW 19 - 10 - - 1011.3 -
20/10:00pm 28.2 - - - - WSW 24 - 13 - 1011.0 1010.9 -
20/09:30pm 28.0 - - - - WSW 26 - 14 - 1010.0 - -
20/09:25pm 28.4 - - - - WSW 28 - 15 - - 1010.8 -
20/09:00pm 29.8 - - - - WNW 15 - 8 - 1010.0 1010.4 -
20/08:30pm 30.0 - - - - W 17 - 9 - 1010.0 - -
20/08:25pm 29.7 - - - - W 15 - 8 - - 1010.1 -
20/08:00pm 29.7 - - - - W 17 - 9 - 1009.0 1009.4 -
20/07:30pm 30.0 - - - - WNW 19 - 10 - 1008.0 - -
20/07:25pm 29.7 - - - - WNW 19 - 10 - - 1008.7 -
20/07:00pm 29.6 - - - - W 20 - 11 - 1008.0 1008.2 -
20/06:30pm 30.0 - - - - WNW 24 - 13 - 1008.0 - -
20/06:25pm 29.7 - - - - WNW 20 - 11 - - 1007.8 -
20/06:00pm 29.8 - - - - WNW 19 - 10 - 1007.0 1007.4 -
20/05:30pm 30.0 - - - - WNW 19 - 10 - 1007.0 - -
20/05:25pm 30.0 - - - - WNW 19 - 10 - - 1007.1 -
20/05:00pm 30.1 - - - - W 20 - 11 - 1006.0 1006.8 -
20/04:30pm 30.0 - - - - WNW 22 - 12 - 1006.0 - -
20/04:25pm 30.0 - - - - W 22 - 12 - - 1006.6 -
20/04:00pm 30.1 - - - - WNW 20 - 11 - 1006.0 1006.6 -
20/03:30pm 30.0 - - - - W 19 - 10 - 1006.0 - -
20/03:25pm 30.0 - - - - W 19 - 10 - - 1006.8 -
20/03:00pm 30.2 - - - - W 19 - 10 - 1007.0 1006.9 -
20/02:30pm 30.0 - - - - W 20 - 11 - 1007.0 - -
20/02:25pm 30.0 - - - - W 19 - 10 - - 1007.0 -
20/02:00pm 29.9 - - - - W 20 - 11 - 1007.0 1006.9 -
20/01:30pm 30.0 - - - - WNW 22 - 12 - 1007.0 - -
20/01:25pm 29.8 - - - - WNW 22 - 12 - - 1007.2 -
20/01:00pm 29.9 - - - - W 24 - 13 - 1007.0 1007.3 -
20/12:30pm 30.0 - - - - W 22 - 12 - 1007.0 - -
20/12:25pm 29.8 - - - - WNW 22 - 12 - - 1007.8 -
20/12:00pm 29.8 - - - - W 20 - 11 - 1008.0 1008.1 -
20/11:30am 30.0 - - - - WNW 19 - 10 - 1008.0 - -
20/11:25am 30.0 - - - - W 17 - 9 - - 1008.8 -
20/11:00am 29.8 - - - - WNW 19 - 10 - 1009.0 1008.9 -
20/10:30am 30.0 - - - - WNW 19 - 10 - 1009.0 - -
20/10:25am 29.8 - - - - WNW 19 - 10 - - 1009.4 -
20/10:00am 29.8 - - - - WNW 19 - 10 - 1009.0 1009.5 -
20/09:30am 30.0 - - - - WNW 17 - 9 - 1009.0 - -
20/09:25am 29.7 - - - - WNW 17 - 9 - - 1009.5 -
20/09:00am 29.7 - - - - WNW 17 - 9 - 1009.0 1009.7 -
20/08:30am 30.0 - - - - WNW 17 - 9 - 1009.0 - -
20/08:25am 29.6 - - - - WNW 17 - 9 - - 1009.4 -
20/08:00am 29.5 - - - - WNW 19 - 10 - 1009.0 1009.2 -
20/07:30am 29.0 - - - - WNW 20 - 11 - 1009.0 - -
20/07:25am 29.4 - - - - WNW 19 - 10 - - 1008.9 -
20/07:00am 29.4 - - - - WNW 22 - 12 - 1008.0 1008.8 -
20/06:30am 29.3 - - - - WNW 24 26 13 14 1008.5 1008.4 -
20/06:25am 29.2 - - - - WNW 22 - 12 - - 1008.3 -
20/06:00am 29.2 - - - - WNW 20 - 11 - 1008.0 1008.1 -
20/05:30am 29.0 - - - - WNW 19 - 10 - 1008.0 - -
20/05:25am 29.1 - - - - WNW 19 - 10 - - 1007.9 -
20/05:00am 29.1 - - - - WNW 17 - 9 - 1007.0 1007.7 -
20/04:30am 29.0 - - - - WNW 19 - 10 - 1007.0 - -
20/04:25am 29.0 - - - - WNW 19 - 10 - - 1007.3 -
20/04:00am 29.1 - - - - WNW 20 - 11 - 1007.0 1006.9 -
20/03:30am 29.0 - - - - WNW 22 - 12 - 1006.0 - -
20/03:25am 28.9 - - - - WNW 22 - 12 - - 1006.7 -
20/03:00am 29.0 - - - - WNW 20 - 11 - 1006.0 1006.7 -
20/02:30am 29.0 - - - - W 17 - 9 - 1007.0 - -
20/02:25am 29.1 - - - - WNW 17 - 9 - - 1007.0 -
20/02:00am 29.1 - - - - WNW 20 - 11 - 1007.0 1007.3 -
20/01:30am 29.0 - - - - WNW 19 - 10 - 1007.0 - -
20/01:25am 29.1 - - - - WNW 19 - 10 - - 1007.6 -
20/01:00am 29.2 - - - - WNW 15 - 8 - 1007.0 1007.8 -
20/12:30am 29.0 - - - - W 13 - 7 - 1008.0 - -
20/12:25am 29.3 - - - - W 13 - 7 - - 1008.0 -
20/12:00am 29.3 - - - - W 17 - 9 - 1008.0 1008.1 -
 
Date/Time
WST
Temp
°C
App
Temp
°C
Dew
Point
°C
Rel
Hum
%
Delta-T
°C
Wind Press
QNH
hPa
Press
MSL
hPa
Rain since
9am
mm
Dir  Spd
km/h
Gust
km/h
Spd
kts
Gust
kts
19/11:30pm 29.0 - - - - W 15 - 8 - 1008.0 - -
19/11:25pm 29.2 - - - - W 15 - 8 - - 1008.4 -
19/11:00pm 29.3 - - - - WNW 17 - 9 - 1008.0 1008.6 -
19/10:30pm 29.0 - - - - W 17 - 9 - 1008.0 - -
19/10:25pm 29.3 - - - - W 15 - 8 - - 1008.8 -
19/10:00pm 29.3 - - - - WNW 9 - 5 - 1008.0 1008.7 -
19/09:30pm 29.0 - - - - W 7 - 4 - 1008.0 - -
19/09:25pm 29.3 - - - - W 9 - 5 - - 1008.5 -
19/09:00pm 29.4 - - - - W 11 - 6 - 1008.0 1008.2 -
19/08:30pm 29.0 - - - - W 15 - 8 - 1008.0 - -
19/08:25pm 29.4 - - - - W 13 - 7 - - 1008.1 -
19/08:00pm 29.4 - - - - W 13 - 7 - 1007.0 1007.7 -
19/07:30pm 29.0 - - - - W 17 - 9 - 1007.0 - -
19/07:25pm 29.4 - - - - W 17 - 9 - - 1007.5 -
19/07:00pm 29.3 - - - - WNW 13 - 7 - 1007.0 1007.2 -
19/06:30pm 29.0 - - - - W 11 - 6 - 1006.0 - -
19/06:25pm 29.2 - - - - W 11 - 6 - - 1006.5 -
19/06:00pm 29.4 - - - - W 9 - 5 - 1006.0 1006.1 -
19/05:30pm 30.0 - - - - W 13 - 7 - 1005.0 - -
19/05:25pm 29.5 - - - - W 13 - 7 - - 1005.2 -
19/05:00pm 29.4 - - - - W 13 - 7 - 1005.0 1005.3 -
19/04:30pm 29.0 - - - - W 20 - 11 - 1005.0 - -
19/04:25pm 29.2 - - - - W 20 - 11 - - 1005.3 -
19/04:00pm 29.5 - - - - W 20 - 11 - 1005.0 1005.3 -
19/03:30pm 30.0 - - - - W 22 - 12 - 1005.0 - -
19/03:25pm 29.5 - - - - W 24 - 13 - - 1005.5 -
19/03:00pm 29.7 - - - - W 22 - 12 - 1005.0 1005.8 -
19/02:30pm 30.0 - - - - W 20 - 11 - 1006.0 - -
19/02:25pm 29.6 - - - - W 20 - 11 - - 1006.4 -
19/02:00pm 29.4 - - - - W 24 - 13 - 1006.0 1006.8 -
19/01:30pm 29.0 - - - - W 24 - 13 - 1007.0 - -
19/01:25pm 29.4 - - - - W 26 - 14 - - 1007.1 -
19/01:00pm 29.2 - - - - W 26 - 14 - 1007.0 1007.1 -

Other formats

Comma delimited format used in spreadsheet applications
http://www.bom.gov.au/fwo/IDW60801/IDW60801.94103.axf

JavaScript Object Notation format (JSON) in row-major order
http://www.bom.gov.au/fwo/IDW60801/IDW60801.94103.json

Data quality

Most of these data are generated automatically and are frequently updated. Quality checks on data are not normally performed. It is possible for incorrect values to appear. Refer to information at About Latest Weather Observations and please check the disclaimer before using these data.